Time;durP1;ratioP1;P1;durP2;ratioP2;P2;SDS_P1;SDS_P2;PMS_P1;PMS_P2;Temp;Humidity;BMP_temperature;BMP_pressure;BME280_temperature;BME280_humidity;BME280_pressure;Samples;Min_cycle;Max_cycle;Signal;HPM_P1;HPM_P2
2022/03/16 00:00:10;;;;;;;17.33;12.80;;;5.90;99.90;;;;;;4917458;29;20232;-59
2022/03/16 00:02:43;;;;;;;17.27;12.93;;;5.70;99.90;;;;;;4917397;29;21569;-59
2022/03/16 00:05:11;;;;;;;16.87;12.50;;;5.80;99.90;;;;;;4917568;29;20232;-59
2022/03/16 00:07:41;;;;;;;17.73;13.23;;;6.10;99.90;;;;;;4917245;29;20244;-59
2022/03/16 00:10:11;;;;;;;19.50;14.83;;;6.00;99.90;;;;;;4917222;29;20256;-59
2022/03/16 00:12:41;;;;;;;17.30;13.53;;;6.10;99.90;;;;;;4916287;29;20244;-59
2022/03/16 00:15:10;;;;;;;21.90;15.30;;;6.20;99.90;;;;;;4917390;29;20279;-59
2022/03/16 00:17:38;;;;;;;25.23;18.13;;;6.30;99.90;;;;;;4918805;29;20772;-59
2022/03/16 00:20:07;;;;;;;20.13;14.53;;;6.20;99.90;;;;;;4936322;29;20643;-59
2022/03/16 00:22:35;;;;;;;19.67;14.90;;;6.30;99.90;;;;;;4934426;29;20331;-59
2022/03/16 00:25:07;;;;;;;20.43;15.73;;;6.30;99.90;;;;;;4916886;29;20600;-59
2022/03/16 00:27:35;;;;;;;17.93;13.93;;;6.10;99.90;;;;;;4917065;29;20236;-59
2022/03/16 00:30:04;;;;;;;16.73;12.87;;;6.10;99.90;;;;;;4916877;29;20611;-59
2022/03/16 00:32:32;;;;;;;19.17;15.03;;;6.00;99.90;;;;;;4900032;29;20707;-59
2022/03/16 00:35:03;;;;;;;18.73;14.63;;;5.90;99.90;;;;;;4900040;29;20724;-59
2022/03/16 00:37:32;;;;;;;15.57;12.23;;;5.70;99.90;;;;;;4916606;29;20232;-59
2022/03/16 00:40:01;;;;;;;12.70;10.43;;;5.50;99.90;;;;;;4899911;29;20319;-59
2022/03/16 00:42:31;;;;;;;13.50;11.27;;;5.70;99.90;;;;;;4916510;29;20263;-59
2022/03/16 00:44:59;;;;;;;11.33;9.03;;;5.70;99.90;;;;;;4916490;29;20241;-59
2022/03/16 00:47:28;;;;;;;12.20;10.00;;;5.70;99.90;;;;;;4916903;29;20318;-59
2022/03/16 00:49:56;;;;;;;12.50;10.60;;;5.90;99.90;;;;;;4935645;29;20368;-59
2022/03/16 00:52:24;;;;;;;12.83;10.00;;;5.70;99.90;;;;;;4935756;29;20244;-58
2022/03/16 00:54:52;;;;;;;11.80;8.13;;;5.50;99.90;;;;;;4916317;29;20323;-59
2022/03/16 00:57:20;;;;;;;10.20;9.03;;;5.40;99.90;;;;;;4916456;29;20288;-59
2022/03/16 00:59:50;;;;;;;7.93;7.13;;;5.30;99.90;;;;;;4899375;29;20605;-59
2022/03/16 01:02:18;;;;;;;8.00;7.20;;;5.30;99.90;;;;;;4915325;29;20259;-59
2022/03/16 01:04:46;;;;;;;9.83;7.73;;;5.50;99.90;;;;;;4916332;29;20708;-59
2022/03/16 01:07:14;;;;;;;6.70;6.00;;;5.50;99.90;;;;;;4916253;29;20244;-58
2022/03/16 01:09:42;;;;;;;7.83;7.13;;;5.50;99.90;;;;;;4934698;29;20712;-59
2022/03/16 01:12:12;;;;;;;6.90;6.20;;;5.40;99.90;;;;;;4918348;29;20231;-59
2022/03/16 01:14:40;;;;;;;6.70;6.00;;;5.50;99.90;;;;;;4917211;29;20232;-59
2022/03/16 01:17:10;;;;;;;7.07;6.23;;;5.30;99.90;;;;;;4899264;29;20279;-59
2022/03/16 01:19:38;;;;;;;7.77;6.07;;;5.10;99.90;;;;;;4933217;29;20572;-59
2022/03/16 01:22:08;;;;;;;7.30;6.40;;;5.10;99.90;;;;;;4917965;29;20401;-59
2022/03/16 01:24:37;;;;;;;6.33;5.73;;;5.00;99.90;;;;;;4928437;29;20697;-59
2022/03/16 01:27:06;;;;;;;7.73;6.90;;;5.20;99.90;;;;;;4899061;29;20633;-59
2022/03/16 01:29:34;;;;;;;8.77;7.87;;;5.30;99.90;;;;;;4932850;29;20258;-59
2022/03/16 01:32:02;;;;;;;10.53;7.60;;;5.50;99.90;;;;;;4917699;29;20255;-59
2022/03/16 01:34:31;;;;;;;9.53;8.33;;;5.40;99.90;;;;;;4934551;29;20234;-58
2022/03/16 01:37:00;;;;;;;9.80;8.80;;;5.70;99.90;;;;;;4918000;29;20236;-59
2022/03/16 01:39:28;;;;;;;9.13;8.07;;;5.40;99.90;;;;;;4901553;29;20288;-59
2022/03/16 01:41:56;;;;;;;9.10;8.20;;;5.30;99.90;;;;;;4915642;29;20610;-59
2022/03/16 01:44:47;;;;;;;10.33;8.90;;;5.30;99.90;;;;;;4931328;29;20238;-59
2022/03/16 01:47:17;;;;;;;9.50;8.47;;;5.10;99.90;;;;;;4919790;29;20244;-59
2022/03/16 01:49:48;;;;;;;11.63;10.23;;;5.40;99.90;;;;;;4915454;29;20236;-59
2022/03/16 01:52:19;;;;;;;11.93;10.73;;;5.40;99.90;;;;;;4915413;29;20480;-59
2022/03/16 01:54:48;;;;;;;10.73;9.63;;;5.20;99.90;;;;;;4914036;29;20721;-59
2022/03/16 01:57:16;;;;;;;12.63;11.30;;;5.20;99.90;;;;;;4914194;29;20239;-59
2022/03/16 01:59:45;;;;;;;11.70;10.27;;;5.60;99.90;;;;;;4898640;29;20264;-59
2022/03/16 02:02:14;;;;;;;14.13;12.63;;;5.70;99.90;;;;;;4914137;29;20268;-59
2022/03/16 02:04:43;;;;;;;12.20;10.90;;;5.60;99.90;;;;;;4932132;29;20273;-59
2022/03/16 02:07:13;;;;;;;11.07;9.93;;;5.20;99.90;;;;;;4921402;29;20259;-59
2022/03/16 02:09:41;;;;;;;13.50;12.20;;;5.40;99.90;;;;;;4932871;29;20266;-59
2022/03/16 02:12:12;;;;;;;16.33;11.63;;;5.60;99.90;;;;;;4934126;29;20252;-59
2022/03/16 02:14:41;;;;;;;10.90;9.80;;;5.20;99.90;;;;;;4934110;29;20290;-59
2022/03/16 02:17:09;;;;;;;11.13;9.43;;;5.00;99.90;;;;;;4933989;29;20228;-59
2022/03/16 02:19:37;;;;;;;8.73;7.83;;;4.80;99.90;;;;;;4933793;29;20274;-59
2022/03/16 02:22:09;;;;;;;10.60;9.17;;;4.60;99.90;;;;;;4928556;29;20583;-59
2022/03/16 02:24:38;;;;;;;9.57;8.63;;;4.50;99.90;;;;;;4924295;29;20465;-59
2022/03/16 02:27:07;;;;;;;10.70;9.60;;;4.40;99.90;;;;;;4914774;29;20315;-59
2022/03/16 02:29:35;;;;;;;10.27;9.27;;;4.70;99.90;;;;;;4931854;29;20306;-59
2022/03/16 02:32:03;;;;;;;13.27;9.60;;;4.50;99.90;;;;;;4933121;29;21056;-59
2022/03/16 02:34:31;;;;;;;12.43;9.73;;;4.40;99.90;;;;;;4914623;29;20264;-59
2022/03/16 02:37:00;;;;;;;14.83;9.87;;;4.40;99.90;;;;;;4914211;29;20760;-59
2022/03/16 02:39:28;;;;;;;10.53;9.43;;;4.30;99.90;;;;;;4914774;29;20481;-59
2022/03/16 02:41:58;;;;;;;10.77;9.67;;;4.30;99.90;;;;;;4914673;29;20236;-59
2022/03/16 02:44:26;;;;;;;11.13;9.40;;;4.30;99.90;;;;;;4930539;29;20318;-59
2022/03/16 02:46:55;;;;;;;10.60;9.60;;;4.40;99.90;;;;;;4923042;29;20480;-59
2022/03/16 02:49:23;;;;;;;9.93;8.93;;;4.40;99.90;;;;;;4930301;29;21053;-59
2022/03/16 02:51:51;;;;;;;10.73;9.73;;;4.60;99.90;;;;;;4933597;29;20267;-59
2022/03/16 02:54:19;;;;;;;9.93;8.93;;;4.60;99.90;;;;;;4918282;29;20232;-59
2022/03/16 02:56:47;;;;;;;13.47;11.63;;;4.80;99.90;;;;;;4914517;29;20945;-59
2022/03/16 02:59:17;;;;;;;11.27;10.07;;;4.80;99.90;;;;;;4914524;29;20291;-59
2022/03/16 03:01:45;;;;;;;12.23;10.87;;;4.70;99.90;;;;;;4918633;29;20467;-58
2022/03/16 03:04:14;;;;;;;11.10;9.50;;;5.00;99.90;;;;;;4919581;29;20319;-59
2022/03/16 03:06:42;;;;;;;11.97;10.73;;;5.20;99.90;;;;;;4914468;29;20474;-59
2022/03/16 03:09:10;;;;;;;12.40;11.20;;;5.40;99.90;;;;;;4928100;29;20538;-59
2022/03/16 03:11:40;;;;;;;12.13;10.93;;;5.20;99.90;;;;;;4933413;29;20319;-59
2022/03/16 03:14:08;;;;;;;11.87;10.40;;;5.10;99.90;;;;;;4933358;29;20236;-59
2022/03/16 03:16:37;;;;;;;11.60;10.43;;;4.80;99.90;;;;;;4933436;29;20235;-59
2022/03/16 03:19:06;;;;;;;11.87;10.57;;;4.70;99.90;;;;;;4933356;29;20283;-59
2022/03/16 03:21:34;;;;;;;12.80;11.10;;;4.70;99.90;;;;;;4933327;29;20235;-59
2022/03/16 03:24:02;;;;;;;13.63;12.27;;;4.60;99.90;;;;;;4927770;29;21009;-59
2022/03/16 03:26:35;;;;;;;14.33;12.93;;;5.00;99.90;;;;;;4914408;29;20287;-59
2022/03/16 03:29:03;;;;;;;14.13;12.73;;;4.90;99.90;;;;;;4914424;29;20324;-59
2022/03/16 03:31:31;;;;;;;13.33;11.83;;;4.80;99.90;;;;;;4914232;29;20327;-59
2022/03/16 03:34:01;;;;;;;11.23;10.10;;;4.60;99.90;;;;;;4913977;29;20247;-59
2022/03/16 03:36:29;;;;;;;15.00;11.73;;;4.70;99.90;;;;;;4914490;29;20487;-59
2022/03/16 03:38:58;;;;;;;15.50;13.47;;;4.90;99.90;;;;;;4914101;29;20504;-59
2022/03/16 03:41:26;;;;;;;13.50;11.97;;;5.00;99.90;;;;;;4914180;29;20239;-59
2022/03/16 03:43:54;;;;;;;11.57;10.47;;;4.80;99.90;;;;;;4921934;29;20236;-59
2022/03/16 03:46:22;;;;;;;13.37;10.93;;;5.00;99.90;;;;;;4914227;29;20239;-59
2022/03/16 03:48:50;;;;;;;11.73;10.57;;;4.60;99.90;;;;;;4917698;29;20732;-59
2022/03/16 03:51:19;;;;;;;11.17;9.73;;;4.50;99.90;;;;;;4917326;29;20240;-59
2022/03/16 03:53:48;;;;;;;13.23;11.33;;;4.30;99.90;;;;;;4917296;29;20551;-58
2022/03/16 03:56:16;;;;;;;12.23;11.00;;;4.20;99.90;;;;;;4917674;29;20263;-59
2022/03/16 03:58:45;;;;;;;11.90;10.80;;;4.00;99.90;;;;;;4928435;29;20513;-59
2022/03/16 04:01:15;;;;;;;10.80;9.70;;;3.90;99.90;;;;;;4936551;29;20478;-59
2022/03/16 04:03:44;;;;;;;10.83;9.73;;;3.90;99.90;;;;;;4925977;29;20255;-59
2022/03/16 04:06:13;;;;;;;11.27;10.23;;;3.90;99.90;;;;;;4917445;29;20468;-59
2022/03/16 04:08:43;;;;;;;14.17;12.77;;;4.20;99.90;;;;;;4927129;29;20547;-59
2022/03/16 04:11:11;;;;;;;12.97;11.67;;;4.40;99.90;;;;;;4936230;29;20478;-59
2022/03/16 04:13:40;;;;;;;11.27;10.17;;;4.40;99.90;;;;;;4934587;29;20468;-59
2022/03/16 04:16:08;;;;;;;12.77;11.40;;;4.50;99.90;;;;;;4917188;29;20732;-59
2022/03/16 04:18:36;;;;;;;17.27;12.60;;;4.40;99.90;;;;;;4926483;29;20456;-59
2022/03/16 04:21:04;;;;;;;11.77;10.67;;;4.30;99.90;;;;;;4936089;29;20296;-59
2022/03/16 04:23:32;;;;;;;12.70;11.40;;;4.20;99.90;;;;;;4928061;29;20243;-59
2022/03/16 04:26:02;;;;;;;13.10;11.70;;;4.20;99.90;;;;;;4916750;29;20334;-59
2022/03/16 04:28:30;;;;;;;13.27;11.83;;;4.20;99.90;;;;;;4925508;29;20236;-59
2022/03/16 04:30:59;;;;;;;12.57;10.80;;;4.20;99.90;;;;;;4935924;29;20509;-58
2022/03/16 04:33:28;;;;;;;18.90;13.90;;;4.30;99.90;;;;;;4927515;29;20298;-59
2022/03/16 04:35:57;;;;;;;14.80;12.10;;;4.20;99.90;;;;;;4916797;29;20235;-59
2022/03/16 04:38:25;;;;;;;12.13;10.83;;;4.10;99.90;;;;;;4924630;29;20236;-59
2022/03/16 04:40:53;;;;;;;13.10;10.57;;;4.00;99.90;;;;;;4935791;29;20295;-59
2022/03/16 04:43:22;;;;;;;11.53;10.10;;;3.80;99.90;;;;;;4935399;29;20529;-59
2022/03/16 04:45:50;;;;;;;10.87;9.63;;;3.80;99.90;;;;;;4917742;29;20895;-58
2022/03/16 04:48:19;;;;;;;10.33;9.33;;;3.70;99.90;;;;;;4906754;29;20490;-59
2022/03/16 04:50:47;;;;;;;11.10;9.90;;;3.70;99.90;;;;;;4935542;29;20555;-59
2022/03/16 04:53:15;;;;;;;12.73;11.43;;;3.60;99.90;;;;;;4929138;29;20243;-59
2022/03/16 04:55:43;;;;;;;11.70;10.60;;;3.50;99.90;;;;;;4916640;29;20476;-59
2022/03/16 04:58:12;;;;;;;12.17;11.03;;;3.60;99.90;;;;;;4916315;29;20463;-59
2022/03/16 05:00:42;;;;;;;12.60;11.30;;;3.70;99.90;;;;;;4916232;29;20969;-59
2022/03/16 05:03:10;;;;;;;11.07;9.97;;;3.60;99.90;;;;;;4922272;29;20478;-59
2022/03/16 05:05:39;;;;;;;14.50;12.33;;;3.90;99.90;;;;;;4919664;29;21021;-58
2022/03/16 05:08:07;;;;;;;13.67;11.70;;;4.00;99.90;;;;;;4915168;29;20882;-59
2022/03/16 05:10:35;;;;;;;12.97;11.60;;;4.00;99.90;;;;;;4916334;29;20484;-59
2022/03/16 05:13:03;;;;;;;12.67;11.37;;;3.80;99.90;;;;;;4915843;29;20568;-59
2022/03/16 05:15:31;;;;;;;13.30;12.00;;;3.90;99.90;;;;;;4915881;29;20474;-59
2022/03/16 05:18:01;;;;;;;13.87;12.47;;;4.10;99.90;;;;;;4920581;29;20565;-59
2022/03/16 05:20:29;;;;;;;10.23;9.23;;;3.90;99.90;;;;;;4934971;29;21037;-59
2022/03/16 05:22:57;;;;;;;11.73;10.53;;;4.20;99.90;;;;;;4934645;29;20549;-59
2022/03/16 05:25:27;;;;;;;12.50;10.47;;;4.00;99.90;;;;;;4921273;29;20582;-59
2022/03/16 05:27:56;;;;;;;14.50;11.70;;;4.20;99.90;;;;;;4919771;29;20493;-58
2022/03/16 05:30:26;;;;;;;13.53;12.13;;;4.10;99.90;;;;;;4934755;29;20843;-59
2022/03/16 05:32:56;;;;;;;13.70;10.97;;;4.10;99.90;;;;;;4930956;29;20484;-59
2022/03/16 05:35:25;;;;;;;17.07;12.40;;;4.00;99.90;;;;;;4915630;29;20476;-59
2022/03/16 05:37:53;;;;;;;16.07;13.70;;;4.20;99.90;;;;;;4919306;29;20488;-59
2022/03/16 05:40:22;;;;;;;15.13;12.20;;;4.30;99.90;;;;;;4922506;29;20471;-59
2022/03/16 05:42:50;;;;;;;17.87;14.17;;;4.30;99.90;;;;;;4917472;29;20475;-59
2022/03/16 05:45:22;;;;;;;12.77;10.90;;;4.00;99.90;;;;;;4914316;29;20531;-59
2022/03/16 05:47:50;;;;;;;15.63;11.47;;;3.60;99.90;;;;;;4912381;29;20487;-59
2022/03/16 05:50:19;;;;;;;14.33;11.73;;;3.70;99.90;;;;;;4907432;29;20536;-59
2022/03/16 05:52:48;;;;;;;15.97;12.00;;;3.70;99.90;;;;;;4917711;29;20317;-58
2022/03/16 05:55:17;;;;;;;13.43;11.20;;;3.50;99.90;;;;;;4918863;29;20267;-59
2022/03/16 05:57:45;;;;;;;11.97;9.57;;;3.40;99.90;;;;;;4915126;29;21026;-57
2022/03/16 06:00:15;;;;;;;11.50;10.30;;;3.30;99.90;;;;;;4915004;29;20480;-60
2022/03/16 06:02:44;;;;;;;10.37;8.60;;;3.30;99.90;;;;;;4914965;29;20542;-59
2022/03/16 06:05:12;;;;;;;10.70;9.60;;;3.40;99.90;;;;;;4912380;29;20475;-60
2022/03/16 06:07:41;;;;;;;10.47;9.47;;;3.40;99.90;;;;;;4916590;29;20496;-59
2022/03/16 06:10:14;;;;;;;9.53;8.57;;;3.30;99.90;;;;;;4913855;29;20534;-59
2022/03/16 06:12:53;;;;;;;10.10;9.10;;;3.30;99.90;;;;;;4914337;29;20475;-59
2022/03/16 06:15:21;;;;;;;9.80;8.80;;;3.30;99.90;;;;;;4913598;29;20469;-59
2022/03/16 06:17:49;;;;;;;10.33;9.33;;;3.40;99.90;;;;;;4917624;29;20479;-59
2022/03/16 06:20:18;;;;;;;10.73;9.63;;;3.50;99.90;;;;;;4914348;29;20479;-58
2022/03/16 06:22:46;;;;;;;10.57;9.27;;;3.60;99.90;;;;;;4913749;29;20486;-57
2022/03/16 06:25:16;;;;;;;10.00;9.00;;;3.60;99.90;;;;;;4915250;29;20854;-60
2022/03/16 06:27:44;;;;;;;8.80;8.00;;;3.60;99.90;;;;;;4913468;29;20475;-59
2022/03/16 06:30:12;;;;;;;8.20;7.40;;;3.70;99.90;;;;;;4913863;29;20491;-59
2022/03/16 06:32:43;;;;;;;8.57;7.77;;;3.70;99.90;;;;;;4913913;29;20508;-59
2022/03/16 06:35:12;;;;;;;9.70;8.70;;;3.90;99.90;;;;;;4914202;29;20468;-58
2022/03/16 06:37:40;;;;;;;9.43;8.50;;;4.00;99.90;;;;;;4914074;29;20495;-59
2022/03/16 06:40:10;;;;;;;10.30;8.87;;;4.00;99.90;;;;;;4917577;29;20524;-59
2022/03/16 06:42:48;;;;;;;9.77;8.83;;;4.00;99.90;;;;;;4912280;29;20468;-59
2022/03/16 06:45:16;;;;;;;11.20;8.77;;;4.00;99.90;;;;;;4916045;29;20523;-59
2022/03/16 06:47:44;;;;;;;10.33;9.27;;;4.00;99.90;;;;;;4914621;29;20487;-59
2022/03/16 06:50:13;;;;;;;11.67;10.00;;;4.10;99.90;;;;;;4915319;29;20980;-59
2022/03/16 06:52:41;;;;;;;11.93;10.67;;;4.20;99.90;;;;;;4915235;29;20485;-59
2022/03/16 06:55:10;;;;;;;11.37;10.07;;;4.40;99.90;;;;;;4917314;29;20524;-59
2022/03/16 06:57:38;;;;;;;10.27;9.17;;;4.40;99.90;;;;;;4911985;29;20460;-59
2022/03/16 07:00:13;;;;;;;10.17;9.13;;;4.30;99.90;;;;;;4917048;29;20496;-59
2022/03/16 07:02:52;;;;;;;9.53;8.53;;;4.20;99.90;;;;;;4911775;29;20471;-60
2022/03/16 07:05:21;;;;;;;9.97;8.97;;;4.30;99.90;;;;;;4914520;29;20483;-59
2022/03/16 07:07:50;;;;;;;9.37;8.20;;;4.30;99.90;;;;;;4912932;29;21088;-58
2022/03/16 07:10:20;;;;;;;9.43;8.43;;;4.30;99.90;;;;;;4875232;29;21029;-59
2022/03/16 07:12:48;;;;;;;9.77;8.27;;;4.30;99.90;;;;;;4874704;29;20518;-58
2022/03/16 07:15:18;;;;;;;8.73;7.93;;;4.30;99.90;;;;;;4875823;29;20489;-59
2022/03/16 07:17:46;;;;;;;8.63;7.83;;;4.30;99.90;;;;;;4877581;29;21103;-58
2022/03/16 07:20:15;;;;;;;9.37;8.43;;;4.40;99.90;;;;;;4880911;29;20474;-59
2022/03/16 07:22:43;;;;;;;9.63;8.70;;;4.40;99.90;;;;;;4880567;29;20559;-59
2022/03/16 07:25:27;;;;;;;9.70;8.70;;;4.50;99.90;;;;;;4884513;29;20874;-59
2022/03/16 07:27:55;;;;;;;9.80;8.80;;;4.50;99.90;;;;;;4882993;29;20484;-58
2022/03/16 07:30:25;;;;;;;9.50;8.60;;;4.50;99.90;;;;;;4880055;29;20477;-59
2022/03/16 07:32:53;;;;;;;10.07;8.23;;;4.60;99.90;;;;;;4880661;29;20485;-59
2022/03/16 07:35:26;;;;;;;9.33;8.40;;;4.60;99.90;;;;;;4883033;29;20238;-59
2022/03/16 07:37:56;;;;;;;8.80;7.90;;;4.70;99.90;;;;;;4878745;29;20482;-59
2022/03/16 07:40:25;;;;;;;9.10;8.20;;;4.70;99.90;;;;;;4879875;29;20477;-59
2022/03/16 07:42:54;;;;;;;8.13;7.43;;;4.80;99.90;;;;;;4879928;29;20478;-59
2022/03/16 07:45:24;;;;;;;9.07;8.20;;;4.80;99.90;;;;;;4878294;29;20750;-59
2022/03/16 07:47:55;;;;;;;9.37;8.47;;;4.90;99.90;;;;;;4883888;29;20602;-59
2022/03/16 07:50:25;;;;;;;9.77;8.77;;;4.90;99.90;;;;;;4881922;29;20510;-59
2022/03/16 07:52:54;;;;;;;9.23;8.13;;;4.90;99.90;;;;;;4883726;29;20492;-59
2022/03/16 07:55:22;;;;;;;11.93;8.50;;;5.00;99.90;;;;;;4887541;29;20470;-59
2022/03/16 07:57:52;;;;;;;10.40;8.83;;;5.00;99.90;;;;;;4883391;29;20245;-59
2022/03/16 08:00:20;;;;;;;16.30;9.60;;;5.10;99.90;;;;;;4899020;29;20291;-59
2022/03/16 08:02:55;;;;;;;14.27;9.37;;;5.10;99.90;;;;;;4898843;29;20871;-59
2022/03/16 08:05:24;;;;;;;14.60;9.23;;;5.20;99.90;;;;;;4898823;29;20491;-59
2022/03/16 08:07:52;;;;;;;14.10;10.10;;;5.30;99.90;;;;;;4884442;29;20477;-59
2022/03/16 08:10:20;;;;;;;12.87;11.13;;;5.30;99.90;;;;;;4936219;29;20597;-59
2022/03/16 08:12:49;;;;;;;14.60;10.70;;;5.40;99.90;;;;;;4936117;29;20318;-59
2022/03/16 08:15:18;;;;;;;11.00;9.80;;;5.40;99.90;;;;;;4936154;29;20323;-59
2022/03/16 08:17:46;;;;;;;13.80;10.80;;;5.50;99.90;;;;;;4921330;29;20255;-59
2022/03/16 08:20:15;;;;;;;14.53;11.10;;;5.60;99.90;;;;;;4916970;29;20244;-59
2022/03/16 08:22:43;;;;;;;15.63;11.43;;;5.70;99.90;;;;;;4918948;29;20487;-59
2022/03/16 08:25:12;;;;;;;16.07;11.53;;;5.80;99.90;;;;;;4920485;29;20563;-58
2022/03/16 08:27:40;;;;;;;14.47;11.17;;;5.80;99.90;;;;;;4918855;29;20232;-59
2022/03/16 08:30:10;;;;;;;13.37;11.97;;;5.90;99.90;;;;;;4935956;29;20246;-59
2022/03/16 08:32:38;;;;;;;14.73;11.77;;;6.00;99.90;;;;;;4934121;29;20643;-59
2022/03/16 08:35:07;;;;;;;14.53;12.07;;;6.10;99.90;;;;;;4915904;29;20469;-59
2022/03/16 08:37:37;;;;;;;15.10;12.30;;;6.20;99.90;;;;;;4916745;29;20327;-59
2022/03/16 08:40:07;;;;;;;16.67;12.60;;;6.30;99.90;;;;;;4916797;29;20279;-58
2022/03/16 08:42:36;;;;;;;16.63;13.10;;;6.30;99.90;;;;;;4916670;29;20244;-59
2022/03/16 08:45:05;;;;;;;16.73;12.90;;;6.40;99.90;;;;;;4916671;29;20236;-59
2022/03/16 08:47:34;;;;;;;16.80;13.23;;;6.40;99.90;;;;;;4916812;29;20240;-59
2022/03/16 08:50:03;;;;;;;17.17;13.47;;;6.50;99.90;;;;;;4916618;29;20237;-59
2022/03/16 08:52:31;;;;;;;19.57;13.13;;;6.60;99.90;;;;;;4916440;29;20329;-59
2022/03/16 08:55:00;;;;;;;16.93;13.57;;;6.80;99.90;;;;;;4928030;29;20635;-59
2022/03/16 08:57:29;;;;;;;19.67;14.30;;;6.90;99.90;;;;;;4935470;29;20584;-59
2022/03/16 08:59:57;;;;;;;23.67;14.80;;;7.10;99.90;;;;;;4935402;29;20232;-59
2022/03/16 09:02:26;;;;;;;21.00;15.20;;;7.30;99.90;;;;;;4935334;29;20290;-58
2022/03/16 09:04:54;;;;;;;27.47;16.80;;;7.40;99.90;;;;;;4897486;29;20679;-59
2022/03/16 09:07:22;;;;;;;19.67;14.97;;;7.50;99.90;;;;;;4911301;29;20236;-59
2022/03/16 09:09:50;;;;;;;22.40;16.33;;;7.70;99.90;;;;;;4916034;29;20276;-59
2022/03/16 09:12:20;;;;;;;21.87;13.40;;;7.80;99.90;;;;;;4916473;29;20244;-59
2022/03/16 09:14:48;;;;;;;22.83;14.03;;;7.80;99.90;;;;;;4916279;29;20331;-59
2022/03/16 09:17:17;;;;;;;22.40;12.93;;;7.90;99.90;;;;;;4916589;29;20264;-59
2022/03/16 09:19:45;;;;;;;20.80;11.77;;;8.00;99.90;;;;;;4934424;29;20270;-59
2022/03/16 09:22:14;;;;;;;22.20;12.03;;;8.00;99.90;;;;;;4928813;29;20241;-59
2022/03/16 09:24:42;;;;;;;19.17;10.67;;;8.00;99.90;;;;;;4915797;29;20228;-59
2022/03/16 09:27:10;;;;;;;17.90;11.43;;;8.10;99.90;;;;;;4915584;29;20244;-59
2022/03/16 09:29:40;;;;;;;18.20;11.30;;;8.20;99.90;;;;;;4933155;29;20231;-59
2022/03/16 09:32:10;;;;;;;18.43;10.77;;;8.20;99.90;;;;;;4934851;29;20239;-59
2022/03/16 09:34:39;;;;;;;16.53;9.90;;;8.40;99.90;;;;;;4934690;29;20268;-59
2022/03/16 09:37:08;;;;;;;19.03;10.33;;;8.70;99.90;;;;;;4934735;29;20247;-59
2022/03/16 09:39:36;;;;;;;17.83;9.87;;;8.80;99.90;;;;;;4934708;29;20236;-59
2022/03/16 09:42:06;;;;;;;17.73;10.17;;;8.90;99.90;;;;;;4934872;29;20685;-59
2022/03/16 09:44:34;;;;;;;17.43;9.43;;;9.00;99.90;;;;;;4934021;29;20235;-59
2022/03/16 09:47:08;;;;;;;17.77;9.40;;;9.10;99.90;;;;;;4922939;29;20253;-58
2022/03/16 09:49:38;;;;;;;16.70;8.20;;;9.20;99.90;;;;;;4932834;29;20240;-58
2022/03/16 09:52:09;;;;;;;17.87;8.90;;;9.20;99.90;;;;;;4934360;29;20237;-59
2022/03/16 09:54:37;;;;;;;14.93;8.50;;;9.10;99.90;;;;;;4925352;29;20241;-59
2022/03/16 09:57:06;;;;;;;14.40;8.77;;;9.30;99.90;;;;;;4915506;29;20243;-59
2022/03/16 09:59:34;;;;;;;14.67;8.07;;;9.40;99.90;;;;;;4915212;29;20228;-59
2022/03/16 10:02:09;;;;;;;13.70;8.00;;;9.40;99.90;;;;;;4914773;29;20337;-58
2022/03/16 10:04:39;;;;;;;15.20;8.33;;;9.50;99.90;;;;;;4914740;29;20247;-59
2022/03/16 10:07:07;;;;;;;14.87;8.13;;;9.50;99.90;;;;;;4915178;29;20381;-59
2022/03/16 10:15:14;;;;;;;15.80;7.57;;;9.60;99.90;;;;;;4897397;29;20321;-57
2022/03/16 10:17:47;;;;;;;12.20;7.60;;;9.80;99.90;;;;;;4914236;29;20268;-59
2022/03/16 10:20:27;;;;;;;14.17;7.33;;;9.70;99.90;;;;;;4914856;29;20253;-59
2022/03/16 10:23:01;;;;;;;13.03;7.33;;;9.90;99.90;;;;;;4914604;29;20302;-59
2022/03/16 10:25:31;;;;;;;12.80;7.30;;;10.10;99.90;;;;;;4914484;29;20240;-58
2022/03/16 10:28:11;;;;;;;13.90;7.33;;;10.10;99.90;;;;;;4914488;29;20250;-59
2022/03/16 10:30:41;;;;;;;14.43;6.87;;;10.30;99.90;;;;;;4926223;29;20240;-59
2022/03/16 10:33:15;;;;;;;17.80;9.90;;;10.50;99.90;;;;;;4927652;29;20237;-59
2022/03/16 10:35:55;;;;;;;17.17;9.07;;;10.60;99.90;;;;;;4914317;29;20590;-59
2022/03/16 10:38:24;;;;;;;13.40;6.97;;;10.80;99.90;;;;;;4914132;29;20246;-59
2022/03/16 10:40:55;;;;;;;13.47;7.63;;;10.80;99.90;;;;;;4914455;29;20249;-59
2022/03/16 10:49:02;;;;;;;11.77;6.40;;;11.00;99.90;;;;;;4925498;29;20297;-58
2022/03/16 10:51:31;;;;;;;11.47;5.63;;;11.10;99.90;;;;;;4921603;29;20654;-59
2022/03/16 10:54:19;;;;;;;12.30;5.77;;;11.10;99.90;;;;;;4917901;29;20251;-58
2022/03/16 10:56:50;;;;;;;9.23;5.27;;;11.20;99.90;;;;;;4913889;29;20240;-59
2022/03/16 10:59:19;;;;;;;9.23;5.40;;;11.20;99.90;;;;;;4914288;29;20241;-58
2022/03/16 11:01:48;;;;;;;10.33;5.70;;;11.20;99.90;;;;;;4914422;29;20659;-58
2022/03/16 11:04:21;;;;;;;10.80;5.47;;;11.10;99.90;;;;;;4914156;29;20694;-59
2022/03/16 11:06:50;;;;;;;10.37;5.83;;;11.00;99.90;;;;;;4913984;29;20260;-59
2022/03/16 11:09:19;;;;;;;13.10;5.83;;;11.00;99.90;;;;;;4913808;29;20576;-57
2022/03/16 11:14:34;;;;;;;11.90;5.90;;;11.30;99.90;;;;;;4912841;29;20242;-58
2022/03/16 11:17:03;;;;;;;10.93;5.30;;;11.60;99.90;;;;;;4913689;29;20604;-58
2022/03/16 11:19:33;;;;;;;11.77;6.10;;;11.80;99.90;;;;;;4918805;29;20347;-58
2022/03/16 11:22:06;;;;;;;10.10;5.20;;;12.10;99.90;;;;;;4918603;29;20272;-59
2022/03/16 11:24:39;;;;;;;9.30;4.97;;;12.20;99.90;;;;;;4932673;29;20262;-59
2022/03/16 11:27:25;;;;;;;10.30;5.67;;;12.40;99.90;;;;;;4933171;29;20245;-59
2022/03/16 11:30:28;;;;;;;10.93;6.20;;;12.50;99.90;;;;;;4932914;29;20306;-59
2022/03/16 11:32:57;;;;;;;12.53;5.70;;;12.60;99.90;;;;;;4917541;29;20239;-59
2022/03/16 11:35:32;;;;;;;9.73;4.87;;;12.50;99.90;;;;;;4915209;29;20243;-58
2022/03/16 11:38:03;;;;;;;9.07;4.90;;;12.90;99.90;;;;;;4918230;29;20336;-58
2022/03/16 11:40:31;;;;;;;12.30;4.93;;;13.20;99.90;;;;;;4932655;29;20325;-59
2022/03/16 11:43:18;;;;;;;9.47;5.13;;;13.40;99.90;;;;;;4930529;29;20257;-58
2022/03/16 11:45:48;;;;;;;10.50;4.87;;;13.40;99.90;;;;;;4933009;29;20331;-59
2022/03/16 11:48:40;;;;;;;9.13;4.60;;;13.30;99.90;;;;;;4926365;29;20294;-58
2022/03/16 11:51:26;;;;;;;8.30;4.83;;;13.30;99.90;;;;;;4917965;29;20708;-58
2022/03/16 11:54:07;;;;;;;10.90;5.07;;;13.40;99.90;;;;;;4929267;29;20278;-58
2022/03/16 11:56:56;;;;;;;9.33;4.90;;;13.30;99.90;;;;;;4913656;29;20244;-58
2022/03/16 11:59:40;;;;;;;7.73;4.73;;;13.50;99.90;;;;;;4928994;29;20251;-58
2022/03/16 12:02:17;;;;;;;9.53;4.40;;;13.60;99.90;;;;;;4916850;29;20254;-59
2022/03/16 12:04:47;;;;;;;10.07;5.13;;;13.80;99.90;;;;;;4913014;29;20315;-58
2022/03/16 12:07:19;;;;;;;8.33;5.33;;;13.80;99.90;;;;;;4911319;29;20244;-58
2022/03/16 12:09:50;;;;;;;10.23;5.00;;;13.50;99.90;;;;;;4914712;29;20643;-59
2022/03/16 12:15:29;;;;;;;9.10;4.93;;;13.40;99.90;;;;;;4915190;29;20240;-58
2022/03/16 12:18:21;;;;;;;9.03;4.90;;;13.40;99.90;;;;;;4916048;29;20577;-58
2022/03/16 12:20:53;;;;;;;7.57;4.60;;;13.50;99.90;;;;;;4915885;29;20751;-58
2022/03/16 12:23:45;;;;;;;9.43;5.47;;;13.40;99.90;;;;;;4913489;29;20274;-58
2022/03/16 12:26:14;;;;;;;9.63;5.40;;;13.40;99.90;;;;;;4916768;29;20299;-59
2022/03/16 12:28:58;;;;;;;8.37;4.70;;;13.30;99.90;;;;;;4914829;29;20236;-59
2022/03/16 12:31:26;;;;;;;10.40;5.47;;;13.40;99.90;;;;;;4914354;29;20779;-58
2022/03/16 12:33:56;;;;;;;8.47;4.93;;;13.40;99.90;;;;;;4915822;29;20264;-58
2022/03/16 12:36:26;;;;;;;8.73;4.77;;;13.10;99.90;;;;;;4916345;29;20715;-56
2022/03/16 12:38:57;;;;;;;11.40;5.60;;;13.10;99.90;;;;;;4915654;29;20247;-58
2022/03/16 12:44:14;;;;;;;10.10;5.13;;;13.00;99.90;;;;;;4914739;29;20323;-59
2022/03/16 12:47:00;;;;;;;8.70;4.93;;;13.20;99.90;;;;;;4913438;29;20240;-58
2022/03/16 12:49:30;;;;;;;9.00;5.67;;;13.30;99.90;;;;;;4914967;29;20700;-58
2022/03/16 12:52:01;;;;;;;7.83;5.43;;;13.30;99.90;;;;;;4915291;29;20645;-58
2022/03/16 12:54:33;;;;;;;9.67;6.30;;;13.50;99.90;;;;;;4915757;29;20260;-58
2022/03/16 12:57:05;;;;;;;10.07;5.70;;;13.40;99.90;;;;;;4913793;29;20291;-58
2022/03/16 12:59:35;;;;;;;9.23;5.63;;;13.20;99.90;;;;;;4923798;29;20712;-58
2022/03/16 13:02:06;;;;;;;8.70;5.50;;;13.40;99.90;;;;;;4921314;29;20235;-59
2022/03/16 13:04:35;;;;;;;11.87;6.60;;;13.40;99.90;;;;;;4915069;29;20458;-58
2022/03/16 13:07:04;;;;;;;9.47;5.80;;;13.40;99.90;;;;;;4915421;29;20243;-58
2022/03/16 13:09:35;;;;;;;10.77;6.50;;;13.50;99.90;;;;;;4915095;29;20292;-58
2022/03/16 13:12:05;;;;;;;12.90;7.33;;;13.50;99.90;;;;;;4916081;29;20295;-58
2022/03/16 13:14:35;;;;;;;13.87;7.40;;;13.40;99.90;;;;;;4915789;29;20275;-58
2022/03/16 13:17:06;;;;;;;12.03;6.27;;;13.40;99.90;;;;;;4915690;29;20267;-58